Halsey, Nebraska
Current Conditions -  °F | °C
As of 12:35 PM on Wednesday 26 Nov 2014 (Local Time) from KTIF Reporting Station
Overcast Overcast  
Wind Chill: 21°   Ceiling: 1400
Heat Index: 28°   Visibility: 10mi
Dew Point: 21°   Wind: 7mph
Humidity: 76%   Direction: 340°NNW
Pressure: 30.27"   Gusts: NA
Location:  41.9°N, 100.27°W
Report Text: KTIF 261835Z AUTO 34006KT 10SM OVC014 M02/M06 A3027 RMK AO2 T10231060
Loading
Personal Weather Stations






























Interactive Weather Map New forecast layout! Learn more

10-Day Weather Forecast

Advertisements
Track Severe Weather on mobile